NFSM7: N Fork Spring River nr Purcell, MO

                                SHEF ID:       NFSM7     N Fork Spring River nr Purcell, MO
STATION TYPE:

STAGE RIV-FLOW
ft cfs
Ccp-Rev Ccp-Rev
(America/Chicago)
04/28 00:00 4.83 460
04/28 01:00 4.79 447
04/28 02:00 4.76 437
04/28 03:00 4.71 421
04/28 04:00 4.68 412
04/28 05:00 4.65 403
04/28 06:00 4.61 391
04/28 07:00 4.59 385
04/28 08:00 4.56 376
04/28 09:00 4.53 367
04/28 10:00 4.51 361
04/28 11:00 4.50 358
04/28 12:00 4.48 352
04/28 13:00 4.58 382
04/28 14:00 4.83 460
04/28 15:00 5.19 585
04/28 16:00 6.05 943
04/28 17:00 7.05 1390
04/28 18:00 7.56 1617
04/28 19:00 7.90 1776
04/28 20:00 8.27 1956
04/28 21:00 8.77 2209
04/28 22:00 9.28 2479
04/28 23:00 ---- ----
Data processed at Wed 29Apr2026 04:45 GMT

NOTICE: If you are parsing this page

Please convert to using our Data API. Starting early 2026 we will be migrating to: https://water.usace.army.mil with modern pages rendered in JavaScript. When this migration completes you will no longer be able to scrape this page! CWMSDataAPI (CDA)

Timeseries IDs (TSIDs)

TSIDs used from left to right in the data table
PURS.Stage.Inst.1Hour.0.Ccp-Rev
PURS.Flow.Inst.1Hour.0.Ccp-Rev

                            

All information presented herein is the property of the government of the United States of America and may be revised or deleted at any time without prior notice. Dissemination of this information without the expressed written consent of the Public Affairs Office, Tulsa District U.S. Army Corps of Engineers is strictly prohibited. These data are gathered electronically and, as presented, have NOT undergone any form of quality control. These data are NOT guaranteed to be valid or correct.